createdAt,value
2022-09-05T00:01:06.076Z,14.32
2022-09-05T00:03:49.814Z,14.27
2022-09-05T00:06:21.107Z,14.25
2022-09-05T00:09:01.905Z,14.14
2022-09-05T00:11:44.094Z,14.05
2022-09-05T00:15:14.952Z,13.95
2022-09-05T00:19:03.867Z,13.92
2022-09-05T00:24:29.591Z,13.91
2022-09-05T00:24:37.610Z,13.93
2022-09-05T00:26:59.018Z,13.89
2022-09-05T00:31:06.225Z,13.93
2022-09-05T00:33:26.234Z,13.91
2022-09-05T00:36:14.736Z,13.88
2022-09-05T00:38:57.963Z,13.86
2022-09-05T00:41:29.134Z,13.89
2022-09-05T00:44:05.284Z,13.85
2022-09-05T00:46:40.164Z,13.73
2022-09-05T00:49:26.251Z,13.65
2022-09-05T00:52:03.466Z,13.63
2022-09-05T00:55:07.193Z,13.52
2022-09-05T00:58:00.099Z,13.44
2022-09-05T01:00:50.118Z,13.45
2022-09-05T01:05:41.500Z,13.48
2022-09-05T01:08:29.258Z,13.46
2022-09-05T01:11:12.032Z,13.41
2022-09-05T01:13:48.650Z,13.46
2022-09-05T01:16:29.954Z,13.53
2022-09-05T01:19:22.749Z,13.48
2022-09-05T01:22:29.631Z,13.55
2022-09-05T01:25:34.915Z,13.47
2022-09-05T01:29:13.789Z,13.39
2022-09-05T01:31:20.168Z,13.28
2022-09-05T01:34:01.830Z,13.24
2022-09-05T01:36:58.528Z,13.19
2022-09-05T01:40:10.812Z,13.15
2022-09-05T01:42:48.878Z,13.04
2022-09-05T01:45:30.789Z,12.95
2022-09-05T01:48:23.685Z,12.91
2022-09-05T01:51:29.022Z,12.81
2022-09-05T01:54:24.363Z,12.68
2022-09-05T01:57:09.666Z,12.65
2022-09-05T01:59:57.203Z,12.64
2022-09-05T02:02:50.247Z,12.66
2022-09-05T02:05:51.196Z,12.56
2022-09-05T02:09:03.735Z,12.47
2022-09-05T02:11:46.685Z,12.34
2022-09-05T02:14:37.058Z,12.22
2022-09-05T02:17:33.500Z,12.23
2022-09-05T02:20:23.464Z,12.27
2022-09-05T02:23:32.623Z,12.26
2022-09-05T02:26:05.335Z,12.17
2022-09-05T02:28:49.608Z,12.19
2022-09-05T02:31:26.736Z,12.14
2022-09-05T02:34:03.257Z,12.15
2022-09-05T02:36:44.546Z,12.16
2022-09-05T02:45:01.048Z,12.12
2022-09-05T02:45:18.108Z,12.02
2022-09-05T02:45:30.301Z,11.96
2022-09-05T02:48:16.315Z,11.91
2022-09-05T02:57:24.836Z,11.79
2022-09-05T02:57:35.241Z,11.67
2022-09-05T02:58:07.990Z,11.61
2022-09-05T03:00:25.640Z,11.57
2022-09-05T03:05:28.197Z,11.62
2022-09-05T03:08:28.428Z,11.72
2022-09-05T03:11:54.323Z,11.74
2022-09-05T03:15:31.486Z,11.75
2022-09-05T03:18:54.260Z,11.88
2022-09-05T03:22:18.222Z,11.89
2022-09-05T03:25:48.537Z,11.88
2022-09-05T03:29:11.436Z,11.97
2022-09-05T03:32:27.147Z,11.97
2022-09-05T03:35:47.918Z,12.01
2022-09-05T03:39:19.627Z,12.02
2022-09-05T03:42:36.526Z,12.05
2022-09-05T03:45:49.688Z,12.05
2022-09-05T03:48:55.423Z,11.97
2022-09-05T03:57:07.323Z,11.89
2022-09-05T03:57:19.058Z,11.83
2022-09-05T03:58:55.522Z,11.91
2022-09-05T04:05:45.381Z,11.94
2022-09-05T04:08:08.802Z,11.90
2022-09-05T04:08:13.434Z,11.83
2022-09-05T04:10:33.897Z,11.75
2022-09-05T04:13:16.029Z,11.80
2022-09-05T04:15:54.640Z,11.75
2022-09-05T04:18:33.369Z,11.74
2022-09-05T04:21:12.149Z,11.66
2022-09-05T04:24:02.718Z,11.69
2022-09-05T04:27:01.278Z,11.70
2022-09-05T04:29:49.135Z,11.75
2022-09-05T04:32:34.861Z,11.84
2022-09-05T04:35:30.406Z,11.85
2022-09-05T04:38:11.808Z,11.82
2022-09-05T04:40:46.475Z,11.82
2022-09-05T04:43:32.382Z,11.86
2022-09-05T04:46:19.374Z,11.98
2022-09-05T04:49:00.985Z,12.06
2022-09-05T04:52:04.155Z,12.20
2022-09-05T04:54:46.250Z,12.28
2022-09-05T04:57:26.045Z,12.29
2022-09-05T05:03:27.514Z,12.35
2022-09-05T05:06:16.895Z,12.47
2022-09-05T05:08:38.141Z,12.54
2022-09-05T05:17:56.225Z,12.71
2022-09-05T05:17:57.231Z,12.61
2022-09-05T05:18:16.250Z,12.79
2022-09-05T05:20:42.643Z,12.92
2022-09-05T05:23:14.861Z,13.07
2022-09-05T05:25:51.850Z,13.18
2022-09-05T05:28:30.617Z,13.28
2022-09-05T05:31:14.177Z,13.36
2022-09-05T05:33:48.787Z,13.42
2022-09-05T05:36:24.915Z,13.46
2022-09-05T05:39:03.655Z,13.51
2022-09-05T05:41:43.261Z,13.55
2022-09-05T05:44:17.306Z,13.51
2022-09-05T05:46:59.640Z,13.47
2022-09-05T05:49:46.692Z,13.47
2022-09-05T05:52:54.701Z,13.48
2022-09-05T05:56:00.101Z,13.42
2022-09-05T05:58:54.014Z,13.37
2022-09-05T06:02:12.073Z,13.36
2022-09-05T06:05:25.739Z,13.44
2022-09-05T06:10:52.573Z,13.56
2022-09-05T06:15:01.624Z,13.74
2022-09-05T06:15:31.601Z,13.96
2022-09-05T06:18:56.742Z,14.45
2022-09-05T06:22:21.306Z,14.81
2022-09-05T06:25:57.208Z,14.98
2022-09-05T06:28:44.629Z,15.04
2022-09-05T06:31:34.917Z,15.08
2022-09-05T06:34:59.923Z,15.20
2022-09-05T06:37:44.568Z,15.35
2022-09-05T06:40:31.452Z,15.57
2022-09-05T06:43:37.636Z,15.90
2022-09-05T06:46:55.445Z,16.23
2022-09-05T06:49:29.712Z,16.73
2022-09-05T06:52:48.612Z,17.37
2022-09-05T06:55:45.393Z,18.31
2022-09-05T06:59:09.725Z,19.51
2022-09-05T07:05:40.007Z,20.08
2022-09-05T07:08:35.865Z,19.99
2022-09-05T07:11:16.922Z,19.84
2022-09-05T07:14:02.798Z,19.69
2022-09-05T07:16:47.670Z,20.01
2022-09-05T07:19:28.663Z,20.12
2022-09-05T07:22:46.155Z,20.24
2022-09-05T07:25:18.586Z,20.87
2022-09-05T07:28:26.476Z,21.09
2022-09-05T07:30:53.174Z,20.81
2022-09-05T07:33:29.024Z,21.52
2022-09-05T07:36:08.115Z,21.82
2022-09-05T07:38:52.309Z,22.33
2022-09-05T07:41:31.192Z,23.59
2022-09-05T07:44:15.735Z,23.87
2022-09-05T07:47:06.570Z,23.07
2022-09-05T07:49:56.590Z,22.51
2022-09-05T07:56:50.042Z,22.74
2022-09-05T07:56:56.723Z,22.80
2022-09-05T08:02:46.018Z,23.65
2022-09-05T08:05:35.481Z,24.22
2022-09-05T08:08:41.933Z,24.13
2022-09-05T08:11:35.428Z,24.26
2022-09-05T08:14:44.199Z,24.26
2022-09-05T08:17:13.138Z,23.98
2022-09-05T08:20:21.341Z,24.51
2022-09-05T08:23:21.810Z,24.26
2022-09-05T08:26:51.253Z,24.92
2022-09-05T08:30:26.853Z,24.22
2022-09-05T08:33:10.324Z,24.56
2022-09-05T08:35:59.363Z,24.45
2022-09-05T08:39:07.106Z,25.05
2022-09-05T08:42:06.138Z,25.47
2022-09-05T08:46:39.915Z,25.36
2022-09-05T08:48:12.430Z,25.45
2022-09-05T08:51:53.963Z,26.38
2022-09-05T08:54:37.203Z,27.66
2022-09-05T08:57:20.346Z,27.22
2022-09-05T09:00:20.264Z,26.87
2022-09-05T09:06:13.434Z,26.91
2022-09-05T09:08:48.186Z,27.13
2022-09-05T09:11:36.776Z,26.91
2022-09-05T09:14:49.844Z,27.20
2022-09-05T09:17:36.751Z,26.05
2022-09-05T09:20:45.463Z,25.32
2022-09-05T09:23:43.349Z,25.36
2022-09-05T09:26:17.199Z,24.79
2022-09-05T09:28:53.472Z,24.80
2022-09-05T09:31:42.902Z,25.01
2022-09-05T09:34:47.254Z,25.86
2022-09-05T09:38:04.025Z,26.01
2022-09-05T09:41:43.784Z,24.73
2022-09-05T09:45:27.628Z,24.05
2022-09-05T09:48:56.076Z,23.29
2022-09-05T09:52:04.863Z,23.66
2022-09-05T09:58:30.092Z,24.72
2022-09-05T10:01:35.446Z,25.74
2022-09-05T10:10:40.396Z,25.34
2022-09-05T10:10:54.588Z,25.53
2022-09-05T10:11:49.946Z,25.44
2022-09-05T10:15:13.239Z,25.63
2022-09-05T10:18:26.983Z,25.85
2022-09-05T10:21:32.548Z,25.73
2022-09-05T10:24:46.351Z,24.89
2022-09-05T10:27:39.430Z,25.67
2022-09-05T10:30:25.306Z,25.35
2022-09-05T10:35:13.966Z,24.84
2022-09-05T10:36:31.480Z,25.60
2022-09-05T10:39:21.058Z,25.37
2022-09-05T10:42:03.083Z,25.50
2022-09-05T10:44:41.190Z,25.37
2022-09-05T10:47:36.730Z,25.76
2022-09-05T10:50:27.520Z,25.83
2022-09-05T10:53:25.513Z,25.67
2022-09-05T10:56:14.977Z,25.52
2022-09-05T11:02:23.922Z,25.07
2022-09-05T11:05:29.095Z,25.29
2022-09-05T11:08:09.888Z,25.89
2022-09-05T11:10:52.640Z,25.34
2022-09-05T11:13:46.423Z,24.85
2022-09-05T11:16:31.544Z,24.98
2022-09-05T11:19:05.021Z,25.08
2022-09-05T11:22:12.112Z,24.60
2022-09-05T11:24:56.790Z,24.83
2022-09-05T11:27:35.839Z,24.60
2022-09-05T11:30:09.150Z,24.68
2022-09-05T11:39:48.424Z,24.35
2022-09-05T11:39:56.619Z,24.39
2022-09-05T11:41:02.722Z,24.38
2022-09-05T11:44:29.644Z,24.64
2022-09-05T11:48:25.011Z,25.28
2022-09-05T11:51:42.595Z,25.39
2022-09-05T11:55:08.136Z,25.49
2022-09-05T11:58:43.579Z,25.59
2022-09-05T12:01:41.438Z,25.34
2022-09-05T12:04:39.796Z,24.80
2022-09-05T12:07:40.294Z,25.17
2022-09-05T12:10:45.974Z,24.93
2022-09-05T12:13:39.166Z,25.15
2022-09-05T12:16:48.096Z,25.58
2022-09-05T12:19:32.740Z,25.47
2022-09-05T12:22:34.523Z,25.22
2022-09-05T12:27:45.014Z,24.81
2022-09-05T12:29:27.633Z,24.51
2022-09-05T12:32:32.218Z,24.64
2022-09-05T12:36:11.893Z,24.83
2022-09-05T12:40:56.153Z,25.06
2022-09-05T12:41:36.422Z,24.89
2022-09-05T12:43:53.001Z,24.64
2022-09-05T12:46:01.414Z,24.78
2022-09-05T12:48:42.733Z,25.28
2022-09-05T12:51:45.369Z,25.54
2022-09-05T12:54:33.089Z,25.59
2022-09-05T13:02:34.822Z,25.09
2022-09-05T13:03:04.929Z,24.67
2022-09-05T13:05:27.378Z,24.92
2022-09-05T13:07:59.559Z,25.20
2022-09-05T13:14:48.588Z,25.26
2022-09-05T13:14:52.853Z,25.56
2022-09-05T13:16:29.582Z,25.86
2022-09-05T13:19:07.819Z,26.27
2022-09-05T13:21:52.858Z,25.82
2022-09-05T13:24:32.178Z,25.82
2022-09-05T13:27:13.911Z,25.80
2022-09-05T13:29:52.648Z,25.98
2022-09-05T13:38:06.158Z,26.05
2022-09-05T13:38:12.952Z,25.81
2022-09-05T13:39:01.337Z,25.23
2022-09-05T13:41:35.541Z,25.44
2022-09-05T13:44:26.554Z,26.12
2022-09-05T13:47:09.048Z,26.47
2022-09-05T13:50:13.735Z,26.28
2022-09-05T13:52:50.613Z,26.45
2022-09-05T13:55:29.907Z,26.21
2022-09-05T13:58:07.645Z,25.96
2022-09-05T14:01:24.510Z,25.93
2022-09-05T14:05:06.496Z,26.37
2022-09-05T14:08:26.129Z,26.49
2022-09-05T14:11:57.385Z,25.99
2022-09-05T14:17:54.421Z,25.78
2022-09-05T14:20:47.315Z,26.64
2022-09-05T14:23:22.341Z,27.15
2022-09-05T14:26:00.792Z,27.84
2022-09-05T14:28:51.405Z,27.36
2022-09-05T14:33:59.607Z,27.22
2022-09-05T14:37:42.859Z,27.34
2022-09-05T14:38:11.524Z,27.29
2022-09-05T14:41:53.256Z,26.27
2022-09-05T14:45:27.492Z,26.61
2022-09-05T14:48:31.716Z,26.40
2022-09-05T14:51:25.313Z,25.60
2022-09-05T14:54:02.183Z,25.87
2022-09-05T14:58:26.394Z,25.90
2022-09-05T15:02:48.046Z,25.48
2022-09-05T15:05:36.879Z,25.03
2022-09-05T15:09:05.644Z,25.09
2022-09-05T15:12:21.591Z,25.25
2022-09-05T15:14:03.977Z,25.54
2022-09-05T15:16:35.767Z,25.43
2022-09-05T15:19:04.877Z,25.61
2022-09-05T15:21:41.502Z,25.61
2022-09-05T15:24:21.174Z,25.77
2022-09-05T15:26:54.364Z,25.65
2022-09-05T15:29:26.609Z,25.53
2022-09-05T15:32:14.399Z,25.49
2022-09-05T15:34:43.167Z,24.94
2022-09-05T15:37:30.769Z,24.95
2022-09-05T15:40:22.733Z,25.16
2022-09-05T15:42:57.044Z,25.10
2022-09-05T15:45:31.665Z,25.24
2022-09-05T15:48:12.762Z,25.36
2022-09-05T15:51:02.575Z,25.55
2022-09-05T15:53:37.235Z,25.35
2022-09-05T15:56:21.142Z,25.07
2022-09-05T15:58:58.087Z,25.44
2022-09-05T16:01:58.367Z,25.00
2022-09-05T16:09:40.980Z,24.61
2022-09-05T16:10:40.243Z,24.68
2022-09-05T16:10:42.876Z,24.54
2022-09-05T16:13:15.179Z,24.51
2022-09-05T16:22:44.445Z,24.24
2022-09-05T16:23:19.711Z,24.04
2022-09-05T16:23:28.520Z,23.47
2022-09-05T16:24:59.775Z,22.99
2022-09-05T16:27:52.963Z,22.77
2022-09-05T16:30:28.004Z,22.87
2022-09-05T16:33:05.655Z,22.02
2022-09-05T16:35:39.605Z,21.36
2022-09-05T16:38:24.184Z,21.14
2022-09-05T16:41:11.007Z,20.80
2022-09-05T16:43:48.366Z,20.61
2022-09-05T16:46:27.959Z,20.46
2022-09-05T16:49:11.662Z,20.38
2022-09-05T16:51:50.096Z,20.33
2022-09-05T16:54:30.310Z,20.26
2022-09-05T16:57:04.450Z,20.11
2022-09-05T16:59:39.666Z,19.94
2022-09-05T17:05:35.813Z,19.56
2022-09-05T17:08:18.582Z,19.46
2022-09-05T17:10:57.422Z,19.34
2022-09-05T17:13:42.540Z,19.25
2022-09-05T17:16:23.851Z,19.18
2022-09-05T17:18:56.690Z,19.07
2022-09-05T17:23:42.899Z,18.99
2022-09-05T17:29:24.707Z,18.92
2022-09-05T17:29:41.334Z,18.82
2022-09-05T17:33:03.894Z,18.62
2022-09-05T17:35:59.738Z,18.50
2022-09-05T17:39:04.214Z,18.43
2022-09-05T17:42:12.353Z,18.23
2022-09-05T17:44:56.920Z,18.11
2022-09-05T17:47:36.271Z,18.00
2022-09-05T17:50:19.336Z,17.95
2022-09-05T17:53:26.394Z,17.86
2022-09-05T17:56:28.861Z,17.76
2022-09-05T17:59:08.339Z,17.68
2022-09-05T18:01:38.363Z,17.61
2022-09-05T18:04:17.103Z,17.52
2022-09-05T18:09:58.937Z,17.28
2022-09-05T18:13:30.990Z,17.18
2022-09-05T18:16:13.118Z,17.06
2022-09-05T18:19:27.745Z,16.96
2022-09-05T18:21:55.303Z,16.92
2022-09-05T18:24:35.241Z,16.85
2022-09-05T18:30:33.254Z,16.60
2022-09-05T18:33:31.357Z,16.51
2022-09-05T18:36:36.365Z,16.48
2022-09-05T18:39:44.126Z,16.47
2022-09-05T18:42:33.178Z,16.42
2022-09-05T18:45:15.573Z,16.43
2022-09-05T18:47:57.321Z,16.37
2022-09-05T18:50:33.221Z,16.24
2022-09-05T18:53:08.896Z,16.13
2022-09-05T18:56:13.226Z,16.21
2022-09-05T18:58:55.599Z,16.12
2022-09-05T19:05:39.093Z,15.95
2022-09-05T19:08:26.753Z,15.89
2022-09-05T19:11:01.986Z,15.87
2022-09-05T19:14:01.458Z,15.83
2022-09-05T19:16:48.073Z,15.72
2022-09-05T19:19:24.480Z,15.68
2022-09-05T19:22:33.326Z,15.65
2022-09-05T19:24:49.408Z,15.57
2022-09-05T19:31:03.035Z,15.55
2022-09-05T19:36:49.069Z,15.54
2022-09-05T19:37:07.381Z,15.50
2022-09-05T19:37:13.586Z,15.53
2022-09-05T19:40:43.404Z,15.38
2022-09-05T19:47:37.947Z,15.29
2022-09-05T19:47:50.889Z,15.32
2022-09-05T19:50:29.278Z,15.18
2022-09-05T19:53:07.959Z,15.16
2022-09-05T19:55:40.490Z,15.13
2022-09-05T19:58:19.755Z,15.10
2022-09-05T20:01:13.698Z,15.04
2022-09-05T20:03:45.152Z,14.98
2022-09-05T20:06:29.094Z,14.96
2022-09-05T20:09:16.796Z,15.03
2022-09-05T20:11:50.659Z,15.06
2022-09-05T20:14:29.185Z,15.03
2022-09-05T20:17:21.224Z,14.98
2022-09-05T20:20:04.170Z,14.93
2022-09-05T20:22:49.379Z,14.88
2022-09-05T20:25:34.998Z,14.81
2022-09-05T20:28:11.069Z,14.75
2022-09-05T20:30:45.597Z,14.77
2022-09-05T20:33:22.837Z,14.72
2022-09-05T20:43:10.410Z,14.63
2022-09-05T20:43:14.359Z,14.73
2022-09-05T20:43:15.055Z,14.66
2022-09-05T20:44:42.517Z,14.63
2022-09-05T20:54:09.364Z,14.62
2022-09-05T20:54:17.176Z,14.55
2022-09-05T20:54:25.304Z,14.50
2022-09-05T20:56:05.162Z,14.52
2022-09-05T20:58:38.239Z,14.54
2022-09-05T21:01:21.978Z,14.46
2022-09-05T21:05:28.548Z,14.42
2022-09-05T21:08:32.111Z,14.40
2022-09-05T21:11:04.772Z,14.39
2022-09-05T21:13:36.301Z,14.40
2022-09-05T21:16:18.546Z,14.43
2022-09-05T21:18:47.524Z,14.45
2022-09-05T21:21:29.186Z,14.49
2022-09-05T21:24:16.681Z,14.42
2022-09-05T21:26:51.040Z,14.35
2022-09-05T21:29:32.996Z,14.35
2022-09-05T21:32:10.288Z,14.35
2022-09-05T21:34:45.697Z,14.34
2022-09-05T21:37:17.798Z,14.37
2022-09-05T21:39:59.678Z,14.42
2022-09-05T21:47:37.332Z,14.43
2022-09-05T21:47:41.946Z,14.32
2022-09-05T21:48:15.139Z,14.26
2022-09-05T21:50:49.106Z,14.21
2022-09-05T21:59:19.388Z,14.24
2022-09-05T21:59:22.148Z,14.19
2022-09-05T21:59:25.013Z,14.22
2022-09-05T22:02:05.494Z,14.19
2022-09-05T22:04:40.802Z,14.16
2022-09-05T22:07:14.437Z,14.09
2022-09-05T22:09:45.051Z,14.01
2022-09-05T22:12:30.240Z,13.98
2022-09-05T22:15:26.136Z,13.90
2022-09-05T22:17:50.414Z,13.85
2022-09-05T22:20:21.403Z,13.86
2022-09-05T22:22:56.350Z,13.83
2022-09-05T22:25:33.284Z,13.78
2022-09-05T22:28:07.040Z,13.68
2022-09-05T22:30:36.795Z,13.68
2022-09-05T22:33:06.330Z,13.75
2022-09-05T22:35:36.414Z,13.78
2022-09-05T22:38:11.890Z,13.76
2022-09-05T22:40:44.532Z,13.72
2022-09-05T22:43:13.296Z,13.77
2022-09-05T22:45:42.216Z,13.69
2022-09-05T22:48:13.660Z,13.67
2022-09-05T22:50:43.991Z,13.62
2022-09-05T22:53:12.647Z,13.61
2022-09-05T22:55:44.564Z,13.59
2022-09-05T22:58:16.344Z,13.65
2022-09-05T23:00:45.196Z,13.61
2022-09-05T23:05:17.817Z,13.52
2022-09-05T23:07:46.383Z,13.54
2022-09-05T23:10:15.127Z,13.56
2022-09-05T23:12:43.637Z,13.64
2022-09-05T23:15:12.933Z,13.59
2022-09-05T23:17:41.480Z,13.55
2022-09-05T23:20:11.221Z,13.55
2022-09-05T23:22:43.147Z,13.51
2022-09-05T23:25:12.285Z,13.46
2022-09-05T23:27:40.854Z,13.50
2022-09-05T23:30:11.342Z,13.51
2022-09-05T23:32:46.631Z,13.47
2022-09-05T23:35:16.614Z,13.39
2022-09-05T23:37:48.639Z,13.32
2022-09-05T23:40:20.221Z,13.24
2022-09-05T23:42:54.226Z,13.23
2022-09-05T23:45:23.435Z,13.21
2022-09-05T23:47:52.463Z,13.23
2022-09-05T23:50:21.770Z,13.18
2022-09-05T23:52:51.846Z,13.17
2022-09-05T23:55:23.490Z,13.13
2022-09-05T23:57:58.423Z,13.04
